createdAt,value
2018-01-23T00:00:05.502Z,5.00
2018-01-23T00:01:05.499Z,3.70
2018-01-23T00:02:05.493Z,4.20
2018-01-23T00:03:05.491Z,4.60
2018-01-23T00:04:05.483Z,3.80
2018-01-23T00:05:05.478Z,3.90
2018-01-23T00:06:05.472Z,3.60
2018-01-23T00:07:05.468Z,4.00
2018-01-23T00:08:05.463Z,3.90
2018-01-23T00:09:05.458Z,3.30
2018-01-23T00:10:05.454Z,4.10
2018-01-23T00:11:05.449Z,3.70
2018-01-23T00:12:05.446Z,4.10
2018-01-23T00:13:05.441Z,3.30
2018-01-23T00:14:05.435Z,3.80
2018-01-23T00:15:05.431Z,4.20
2018-01-23T00:16:05.426Z,4.40
2018-01-23T00:17:05.422Z,3.80
2018-01-23T00:18:05.416Z,3.50
2018-01-23T00:19:05.411Z,3.30
2018-01-23T00:20:05.408Z,3.80
2018-01-23T00:21:05.403Z,4.60
2018-01-23T00:22:05.397Z,2.50
2018-01-23T00:23:05.391Z,3.80
2018-01-23T00:24:05.387Z,4.60
2018-01-23T00:25:05.384Z,4.00
2018-01-23T00:26:05.379Z,5.40
2018-01-23T00:27:05.374Z,3.70
2018-01-23T00:28:05.369Z,3.90
2018-01-23T00:29:05.364Z,4.20
2018-01-23T00:30:05.358Z,4.20
2018-01-23T00:31:05.354Z,2.80
2018-01-23T00:32:05.348Z,4.10
2018-01-23T00:33:05.343Z,4.90
2018-01-23T00:34:05.337Z,3.60
2018-01-23T00:35:05.334Z,4.70
2018-01-23T00:36:05.329Z,4.20
2018-01-23T00:37:05.326Z,4.80
2018-01-23T00:38:05.319Z,3.70
2018-01-23T00:39:05.313Z,4.00
2018-01-23T00:40:05.309Z,3.60
2018-01-23T00:41:05.306Z,3.90
2018-01-23T00:42:05.298Z,3.70
2018-01-23T00:43:05.296Z,4.70
2018-01-23T00:44:05.289Z,5.00
2018-01-23T00:45:05.286Z,4.90
2018-01-23T00:46:05.279Z,3.70
2018-01-23T00:47:05.274Z,4.30
2018-01-23T00:48:05.270Z,4.10
2018-01-23T00:49:05.266Z,3.60
2018-01-23T00:50:05.260Z,4.00
2018-01-23T00:51:05.255Z,3.80
2018-01-23T00:52:05.250Z,5.20
2018-01-23T00:53:05.246Z,4.80
2018-01-23T00:54:05.244Z,5.00
2018-01-23T00:55:05.237Z,4.30
2018-01-23T00:56:05.232Z,3.20
2018-01-23T00:57:05.229Z,3.90
2018-01-23T00:58:05.221Z,5.00
2018-01-23T00:59:05.216Z,4.30
2018-01-23T01:00:05.212Z,4.30
2018-01-23T01:01:05.207Z,4.20
2018-01-23T01:02:05.200Z,4.60
2018-01-23T01:03:05.197Z,3.80
2018-01-23T01:04:05.193Z,4.40
2018-01-23T01:05:05.196Z,4.40
2018-01-23T01:06:05.184Z,4.50
2018-01-23T01:07:05.178Z,3.90
2018-01-23T01:08:05.172Z,4.50
2018-01-23T01:09:05.168Z,4.80
2018-01-23T01:10:05.163Z,4.30
2018-01-23T01:11:05.157Z,4.10
2018-01-23T01:12:05.152Z,4.50
2018-01-23T01:13:05.158Z,5.00
2018-01-23T01:14:05.143Z,4.60
2018-01-23T01:15:05.139Z,3.70
2018-01-23T01:16:05.134Z,3.70
2018-01-23T01:17:05.129Z,4.30
2018-01-23T01:18:05.124Z,4.20
2018-01-23T01:19:05.118Z,4.00
2018-01-23T01:20:05.114Z,4.40
2018-01-23T01:21:05.109Z,3.90
2018-01-23T01:22:05.103Z,4.20
2018-01-23T01:23:05.100Z,4.30
2018-01-23T01:24:05.095Z,3.90
2018-01-23T01:25:05.089Z,4.00
2018-01-23T01:26:05.084Z,4.40
2018-01-23T01:27:05.080Z,4.50
2018-01-23T01:28:05.074Z,3.70
2018-01-23T01:29:05.070Z,3.90
2018-01-23T01:30:05.064Z,4.20
2018-01-23T01:31:05.059Z,5.30
2018-01-23T01:32:05.055Z,4.40
2018-01-23T01:33:05.050Z,4.00
2018-01-23T01:34:05.044Z,4.40
2018-01-23T01:35:05.040Z,3.80
2018-01-23T01:36:05.034Z,4.60
2018-01-23T01:37:05.029Z,3.90
2018-01-23T01:38:05.023Z,4.20
2018-01-23T01:39:05.018Z,5.30
2018-01-23T01:40:05.014Z,5.10
2018-01-23T01:41:05.008Z,4.60
2018-01-23T01:42:05.001Z,4.80
2018-01-23T01:43:04.998Z,4.10
2018-01-23T01:44:04.993Z,4.70
2018-01-23T01:45:04.987Z,3.60
2018-01-23T01:46:04.982Z,5.20
2018-01-23T01:47:04.976Z,4.10
2018-01-23T01:48:04.971Z,4.10
2018-01-23T01:49:04.967Z,4.00
2018-01-23T01:50:04.961Z,4.00
2018-01-23T01:51:04.957Z,5.20
2018-01-23T01:52:04.952Z,4.40
2018-01-23T01:53:04.947Z,4.80
2018-01-23T01:54:04.941Z,5.00
2018-01-23T01:55:04.938Z,4.70
2018-01-23T01:56:04.931Z,4.70
2018-01-23T01:57:04.927Z,4.00
2018-01-23T01:58:04.921Z,5.00
2018-01-23T01:59:04.916Z,4.70
2018-01-23T02:00:04.913Z,4.40
2018-01-23T02:01:04.907Z,4.40
2018-01-23T02:02:04.903Z,5.60
2018-01-23T02:03:04.897Z,4.70
2018-01-23T02:04:04.892Z,5.00
2018-01-23T02:05:04.887Z,4.80
2018-01-23T02:06:04.883Z,3.90
2018-01-23T02:07:04.876Z,4.70
2018-01-23T02:08:04.873Z,5.40
2018-01-23T02:09:04.868Z,4.30
2018-01-23T02:10:04.862Z,5.20
2018-01-23T02:11:04.858Z,4.70
2018-01-23T02:12:04.854Z,5.50
2018-01-23T02:13:04.848Z,5.30
2018-01-23T02:14:04.844Z,4.40
2018-01-23T02:15:04.839Z,4.40
2018-01-23T02:16:04.833Z,4.90
2018-01-23T02:17:04.829Z,4.80
2018-01-23T02:18:04.823Z,4.50
2018-01-23T02:19:04.818Z,5.10
2018-01-23T02:20:04.814Z,4.60
2018-01-23T02:21:04.810Z,4.30
2018-01-23T02:22:04.804Z,5.30
2018-01-23T02:23:04.799Z,6.00
2018-01-23T02:24:04.795Z,4.70
2018-01-23T02:25:04.789Z,5.00
2018-01-23T02:26:04.785Z,4.90
2018-01-23T02:27:04.781Z,4.40
2018-01-23T02:28:04.776Z,5.50
2018-01-23T02:29:04.771Z,5.00
2018-01-23T02:30:04.765Z,4.80
2018-01-23T02:31:04.760Z,5.00
2018-01-23T02:32:04.756Z,5.60
2018-01-23T02:33:04.751Z,4.60
2018-01-23T02:34:04.746Z,5.70
2018-01-23T02:35:04.740Z,5.50
2018-01-23T02:36:04.736Z,5.70
2018-01-23T02:37:04.732Z,5.40
2018-01-23T02:38:04.727Z,5.20
2018-01-23T02:39:04.721Z,5.60
2018-01-23T02:40:04.717Z,5.50
2018-01-23T02:41:04.713Z,5.30
2018-01-23T02:42:04.707Z,4.20
2018-01-23T02:43:04.703Z,5.20
2018-01-23T02:44:04.697Z,5.10
2018-01-23T02:45:04.694Z,5.10
2018-01-23T02:46:04.688Z,4.80
2018-01-23T02:47:04.683Z,4.70
2018-01-23T02:48:04.678Z,5.50
2018-01-23T02:49:04.676Z,6.30
2018-01-23T02:50:04.668Z,5.10
2018-01-23T02:51:04.663Z,5.60
2018-01-23T02:52:04.660Z,5.30
2018-01-23T02:53:04.654Z,5.90
2018-01-23T02:54:04.649Z,6.30
2018-01-23T02:55:04.645Z,5.30
2018-01-23T02:56:04.639Z,6.30
2018-01-23T02:57:04.636Z,5.00
2018-01-23T02:58:04.630Z,5.60
2018-01-23T02:59:04.624Z,6.70
2018-01-23T03:00:04.620Z,5.10
2018-01-23T03:01:04.616Z,5.60
2018-01-23T03:02:04.610Z,5.60
2018-01-23T03:03:04.604Z,5.20
2018-01-23T03:04:04.600Z,5.30
2018-01-23T03:05:04.596Z,5.40
2018-01-23T03:06:04.589Z,5.10
2018-01-23T03:07:04.585Z,5.70
2018-01-23T03:08:04.581Z,5.40
2018-01-23T03:09:04.574Z,5.40
2018-01-23T03:10:04.570Z,4.80
2018-01-23T03:11:04.565Z,5.90
2018-01-23T03:12:04.561Z,5.60
2018-01-23T03:13:04.555Z,5.10
2018-01-23T03:14:04.549Z,4.80
2018-01-23T03:15:04.545Z,5.50
2018-01-23T03:16:04.541Z,5.30
2018-01-23T03:17:04.534Z,5.30
2018-01-23T03:18:04.530Z,5.80
2018-01-23T03:19:04.525Z,5.10
2018-01-23T03:20:04.520Z,5.00
2018-01-23T03:21:04.515Z,5.50
2018-01-23T03:22:04.509Z,5.70
2018-01-23T03:23:04.504Z,5.20
2018-01-23T03:24:04.501Z,5.40
2018-01-23T03:25:04.494Z,5.90
2018-01-23T03:26:04.491Z,6.10
2018-01-23T03:27:04.485Z,5.60
2018-01-23T03:28:04.481Z,5.80
2018-01-23T03:29:04.474Z,5.40
2018-01-23T03:30:04.469Z,5.90
2018-01-23T03:31:04.465Z,5.60
2018-01-23T03:32:04.462Z,5.50
2018-01-23T03:33:04.454Z,5.20
2018-01-23T03:34:04.447Z,6.10
2018-01-23T03:35:04.444Z,5.20
2018-01-23T03:36:04.440Z,4.70
2018-01-23T03:37:04.433Z,6.30
2018-01-23T03:38:04.430Z,5.10
2018-01-23T03:39:04.424Z,5.50
2018-01-23T03:40:04.418Z,5.50
2018-01-23T03:41:04.414Z,6.50
2018-01-23T03:42:04.409Z,6.50
2018-01-23T03:43:04.403Z,5.00
2018-01-23T03:44:04.399Z,5.40
2018-01-23T03:45:04.397Z,5.90
2018-01-23T03:46:04.388Z,6.00
2018-01-23T03:47:04.384Z,5.20
2018-01-23T03:48:04.379Z,5.00
2018-01-23T03:49:04.375Z,6.30
2018-01-23T03:50:04.369Z,5.60
2018-01-23T03:51:04.364Z,5.60
2018-01-23T03:52:04.359Z,5.30
2018-01-23T03:53:04.353Z,7.00
2018-01-23T03:54:04.349Z,7.00
2018-01-23T03:55:04.344Z,5.70
2018-01-23T03:56:04.340Z,5.70
2018-01-23T03:57:04.333Z,5.70
2018-01-23T03:58:04.328Z,5.40
2018-01-23T03:59:04.323Z,5.50
2018-01-23T04:00:04.318Z,6.20
2018-01-23T04:01:04.314Z,6.30
2018-01-23T04:02:04.308Z,5.20
2018-01-23T04:03:04.302Z,6.90
2018-01-23T04:04:04.298Z,5.80
2018-01-23T04:05:04.293Z,6.00
2018-01-23T04:06:04.287Z,4.80
2018-01-23T04:07:04.282Z,4.90
2018-01-23T04:08:04.278Z,5.60
2018-01-23T04:09:04.273Z,5.80
2018-01-23T04:10:04.269Z,6.60
2018-01-23T04:11:04.262Z,5.80
2018-01-23T04:12:04.258Z,6.80
2018-01-23T04:13:04.253Z,4.40
2018-01-23T04:14:04.246Z,5.30
2018-01-23T04:15:04.241Z,5.40
2018-01-23T04:16:04.240Z,4.50
2018-01-23T04:17:04.232Z,5.40
2018-01-23T04:18:04.228Z,5.90
2018-01-23T04:19:04.223Z,5.00
2018-01-23T04:20:04.218Z,5.80
2018-01-23T04:21:04.213Z,4.60
2018-01-23T04:22:04.208Z,5.90
2018-01-23T04:23:04.202Z,5.50
2018-01-23T04:24:04.198Z,5.50
2018-01-23T04:25:04.193Z,5.70
2018-01-23T04:26:04.187Z,6.00
2018-01-23T04:27:04.184Z,4.90
2018-01-23T04:28:04.179Z,5.00
2018-01-23T04:29:04.173Z,5.50
2018-01-23T04:30:04.169Z,4.90
2018-01-23T04:31:04.163Z,5.40
2018-01-23T04:32:04.159Z,5.40
2018-01-23T04:33:04.153Z,6.20
2018-01-23T04:34:04.147Z,4.30
2018-01-23T04:35:04.142Z,5.00
2018-01-23T04:36:04.138Z,5.90
2018-01-23T04:37:04.133Z,5.90
2018-01-23T04:38:04.127Z,5.60
2018-01-23T04:39:04.123Z,4.80
2018-01-23T04:40:04.118Z,6.00
2018-01-23T04:41:04.113Z,5.10
2018-01-23T04:42:04.107Z,4.90
2018-01-23T04:43:04.104Z,5.60
2018-01-23T04:44:04.098Z,5.80
2018-01-23T04:45:04.094Z,5.50
2018-01-23T04:46:04.090Z,5.00
2018-01-23T04:47:04.090Z,5.80
2018-01-23T04:48:04.080Z,6.40
2018-01-23T04:49:04.075Z,6.70
2018-01-23T04:50:04.068Z,5.60
2018-01-23T04:51:04.063Z,5.50
2018-01-23T04:52:04.058Z,6.10
2018-01-23T04:53:04.054Z,6.40
2018-01-23T04:54:04.048Z,6.50
2018-01-23T04:55:04.044Z,4.40
2018-01-23T04:56:04.039Z,4.70
2018-01-23T04:57:04.034Z,6.20
2018-01-23T04:58:04.029Z,6.00
2018-01-23T04:59:04.024Z,6.00
2018-01-23T05:00:04.019Z,5.20
2018-01-23T05:01:04.014Z,5.30
2018-01-23T05:02:04.008Z,6.40
2018-01-23T05:03:04.005Z,5.80
2018-01-23T05:04:03.998Z,4.90
2018-01-23T05:05:03.994Z,4.80
2018-01-23T05:06:03.988Z,5.60
2018-01-23T05:07:03.983Z,5.60
2018-01-23T05:08:03.980Z,4.10
2018-01-23T05:09:03.974Z,4.80
2018-01-23T05:10:03.970Z,6.30
2018-01-23T05:11:03.965Z,6.40
2018-01-23T05:12:03.959Z,5.50
2018-01-23T05:13:03.954Z,5.00
2018-01-23T05:14:03.948Z,5.70
2018-01-23T05:15:03.945Z,4.70
2018-01-23T05:16:03.940Z,5.40
2018-01-23T05:17:03.935Z,5.90
2018-01-23T05:18:03.929Z,6.00
2018-01-23T05:19:03.924Z,5.90
2018-01-23T05:20:03.920Z,4.40
2018-01-23T05:21:03.915Z,5.30
2018-01-23T05:22:03.909Z,5.80
2018-01-23T05:23:03.905Z,6.40
2018-01-23T05:24:03.900Z,5.70
2018-01-23T05:25:03.900Z,5.20
2018-01-23T05:26:03.890Z,6.20
2018-01-23T05:27:03.885Z,5.60
2018-01-23T05:28:03.881Z,5.70
2018-01-23T05:29:03.877Z,6.00
2018-01-23T05:30:03.871Z,6.70
2018-01-23T05:31:03.866Z,5.50
2018-01-23T05:32:03.861Z,4.90
2018-01-23T05:33:03.858Z,4.70
2018-01-23T05:34:03.851Z,5.60
2018-01-23T05:35:03.847Z,5.90
2018-01-23T05:36:03.843Z,6.40
2018-01-23T05:37:03.839Z,4.80
2018-01-23T05:38:03.832Z,6.30
2018-01-23T05:39:03.827Z,5.20
2018-01-23T05:40:03.823Z,5.10
2018-01-23T05:41:03.818Z,6.00
2018-01-23T05:42:03.814Z,6.80
2018-01-23T05:43:03.809Z,6.70
2018-01-23T05:44:03.807Z,4.80
2018-01-23T05:45:03.800Z,5.90
2018-01-23T05:46:03.794Z,5.50
2018-01-23T05:47:03.789Z,5.10
2018-01-23T05:48:03.786Z,5.50
2018-01-23T05:49:03.779Z,4.40
2018-01-23T05:50:03.774Z,4.70
2018-01-23T05:51:03.769Z,5.80
2018-01-23T05:52:03.765Z,5.80
2018-01-23T05:53:03.761Z,5.50
2018-01-23T05:54:03.754Z,4.80
2018-01-23T05:55:03.753Z,5.70
2018-01-23T05:56:03.746Z,5.00
2018-01-23T05:57:03.740Z,5.80
2018-01-23T05:58:03.735Z,6.40
2018-01-23T05:59:03.730Z,5.00
2018-01-23T06:00:03.725Z,5.20
2018-01-23T06:01:03.722Z,5.10
2018-01-23T06:02:03.715Z,4.60
2018-01-23T06:03:03.711Z,5.70
2018-01-23T06:04:03.706Z,5.10
2018-01-23T06:05:03.701Z,5.00
2018-01-23T06:06:03.696Z,4.70
2018-01-23T06:07:03.693Z,5.90
2018-01-23T06:08:03.687Z,6.50
2018-01-23T06:09:03.682Z,5.00
2018-01-23T06:10:03.676Z,4.40
2018-01-23T06:11:03.674Z,4.70
2018-01-23T06:12:03.669Z,4.70
2018-01-23T06:13:03.664Z,4.50
2018-01-23T06:14:03.663Z,4.40
2018-01-23T06:15:03.653Z,5.00
2018-01-23T06:16:03.649Z,5.60
2018-01-23T06:17:03.643Z,5.80
2018-01-23T06:18:03.637Z,4.90
2018-01-23T06:19:03.632Z,5.30
2018-01-23T06:20:03.628Z,5.40
2018-01-23T06:21:03.624Z,4.80
2018-01-23T06:22:03.619Z,5.10
2018-01-23T06:23:03.614Z,5.10
2018-01-23T06:24:03.608Z,4.80
2018-01-23T06:25:03.603Z,5.20
2018-01-23T06:26:03.597Z,4.80
2018-01-23T06:27:03.593Z,5.70
2018-01-23T06:28:03.589Z,5.70
2018-01-23T06:29:03.585Z,5.10
2018-01-23T06:30:03.579Z,4.30
2018-01-23T06:31:03.573Z,4.70
2018-01-23T06:32:03.569Z,5.20
2018-01-23T06:33:03.570Z,5.20
2018-01-23T06:34:03.559Z,4.80
2018-01-23T06:35:03.557Z,5.90
2018-01-23T06:36:03.550Z,5.40
2018-01-23T06:37:03.544Z,4.60
2018-01-23T06:38:03.539Z,5.70
2018-01-23T06:39:03.535Z,5.50
2018-01-23T06:40:03.531Z,5.20
2018-01-23T06:41:03.527Z,4.60
2018-01-23T06:42:03.524Z,4.90
2018-01-23T06:43:03.521Z,5.30
2018-01-23T06:44:03.511Z,5.00
2018-01-23T06:45:03.507Z,4.70
2018-01-23T06:46:03.501Z,5.30
2018-01-23T06:47:03.495Z,5.10
2018-01-23T06:48:03.492Z,4.90
2018-01-23T06:49:03.489Z,5.40
2018-01-23T06:50:03.481Z,4.80
2018-01-23T06:51:03.476Z,5.40
2018-01-23T06:52:03.470Z,4.30
2018-01-23T06:53:03.467Z,5.20
2018-01-23T06:54:03.460Z,5.10
2018-01-23T06:55:03.457Z,5.50
2018-01-23T06:56:03.451Z,5.40
2018-01-23T06:57:03.447Z,5.30
2018-01-23T06:58:03.441Z,4.80
2018-01-23T06:59:03.437Z,4.30
2018-01-23T07:00:03.431Z,4.80
2018-01-23T07:01:03.427Z,5.10
2018-01-23T07:02:03.424Z,5.40
2018-01-23T07:03:03.416Z,5.00
2018-01-23T07:04:03.412Z,6.00
2018-01-23T07:05:03.407Z,5.60
2018-01-23T07:06:03.402Z,4.80
2018-01-23T07:07:03.398Z,4.60
2018-01-23T07:08:03.391Z,4.70
2018-01-23T07:09:03.387Z,4.90
2018-01-23T07:10:03.383Z,6.50
2018-01-23T07:11:03.377Z,6.20
2018-01-23T07:12:03.373Z,6.50
2018-01-23T07:13:03.367Z,5.90
2018-01-23T07:14:03.362Z,6.10
2018-01-23T07:15:03.360Z,5.00
2018-01-23T07:16:03.352Z,5.80
2018-01-23T07:17:03.349Z,6.00
2018-01-23T07:18:03.344Z,6.50
2018-01-23T07:19:03.338Z,6.20
2018-01-23T07:20:03.334Z,6.50
2018-01-23T07:21:03.327Z,7.00
2018-01-23T07:22:03.322Z,7.60
2018-01-23T07:23:03.317Z,6.50
2018-01-23T07:24:03.315Z,6.80
2018-01-23T07:25:03.309Z,7.00
2018-01-23T07:26:03.307Z,6.40
2018-01-23T07:27:03.299Z,6.80
2018-01-23T07:28:03.294Z,8.10
2018-01-23T07:29:03.288Z,7.60
2018-01-23T07:30:03.283Z,6.90
2018-01-23T07:31:03.278Z,6.90
2018-01-23T07:32:03.272Z,7.30
2018-01-23T07:33:03.268Z,7.70
2018-01-23T07:34:03.263Z,7.40
2018-01-23T07:35:03.258Z,8.20
2018-01-23T07:36:03.254Z,7.10
2018-01-23T07:37:03.250Z,7.10
2018-01-23T07:38:03.245Z,7.70
2018-01-23T07:39:03.239Z,7.10
2018-01-23T07:40:03.234Z,8.20
2018-01-23T07:41:03.230Z,7.70
2018-01-23T07:42:03.223Z,7.60
2018-01-23T07:43:03.220Z,8.50
2018-01-23T07:44:03.215Z,8.10
2018-01-23T07:45:03.211Z,7.50
2018-01-23T07:46:03.207Z,7.60
2018-01-23T07:47:03.199Z,7.10
2018-01-23T07:48:03.196Z,8.10
2018-01-23T07:49:03.190Z,7.40
2018-01-23T07:50:03.186Z,7.90
2018-01-23T07:51:03.188Z,8.50
2018-01-23T07:52:03.177Z,7.70
2018-01-23T07:53:03.172Z,7.00
2018-01-23T07:54:03.167Z,7.40
2018-01-23T07:55:03.162Z,7.40
2018-01-23T07:56:03.156Z,7.50
2018-01-23T07:57:03.153Z,7.40
2018-01-23T07:58:03.147Z,7.50
2018-01-23T07:59:03.142Z,7.40
2018-01-23T08:00:03.139Z,7.30
2018-01-23T08:01:03.175Z,6.90
2018-01-23T08:02:03.127Z,7.00
2018-01-23T08:03:03.122Z,7.50
2018-01-23T08:04:03.119Z,7.70
2018-01-23T08:05:03.114Z,7.00
2018-01-23T08:06:03.109Z,7.20
2018-01-23T08:07:03.104Z,7.70
2018-01-23T08:08:03.099Z,7.80
2018-01-23T08:09:03.101Z,7.20
2018-01-23T08:10:03.089Z,7.80
2018-01-23T08:11:03.084Z,7.50
2018-01-23T08:12:03.083Z,7.70
2018-01-23T08:13:03.076Z,8.60
2018-01-23T08:14:03.070Z,8.40
2018-01-23T08:15:03.065Z,7.90
2018-01-23T08:16:03.060Z,7.60
2018-01-23T08:17:03.055Z,7.50
2018-01-23T08:18:03.050Z,7.40
2018-01-23T08:19:03.048Z,7.10
2018-01-23T08:20:03.042Z,8.00
2018-01-23T08:21:03.039Z,8.10
2018-01-23T08:22:03.033Z,7.40
2018-01-23T08:23:03.027Z,7.40
2018-01-23T08:24:03.023Z,6.80
2018-01-23T08:25:03.019Z,6.20
2018-01-23T08:26:03.012Z,7.30
2018-01-23T08:27:03.008Z,7.00
2018-01-23T08:28:03.004Z,7.20
2018-01-23T08:29:03.001Z,8.10
2018-01-23T08:30:02.993Z,7.40
2018-01-23T08:31:02.989Z,7.70
2018-01-23T08:32:02.985Z,7.10
2018-01-23T08:33:02.980Z,6.20
2018-01-23T08:34:02.975Z,7.30
2018-01-23T08:35:02.970Z,9.20
2018-01-23T08:36:02.965Z,8.10
2018-01-23T08:37:02.962Z,7.60
2018-01-23T08:38:02.956Z,8.00
2018-01-23T08:39:02.952Z,8.20
2018-01-23T08:40:02.949Z,7.20
2018-01-23T08:41:02.942Z,8.20
2018-01-23T08:42:02.937Z,8.30
2018-01-23T08:43:02.931Z,8.00
2018-01-23T08:44:02.928Z,5.80
2018-01-23T08:45:02.926Z,7.20
2018-01-23T08:46:02.918Z,6.50
2018-01-23T08:47:02.915Z,7.90
2018-01-23T08:48:02.909Z,8.70
2018-01-23T08:49:02.910Z,7.10
2018-01-23T08:50:02.899Z,5.90
2018-01-23T08:51:02.894Z,6.40
2018-01-23T08:52:02.891Z,5.30
2018-01-23T08:53:02.886Z,6.00
2018-01-23T08:54:02.882Z,7.60
2018-01-23T08:55:02.878Z,7.80
2018-01-23T08:56:02.873Z,7.70
2018-01-23T08:57:02.868Z,7.10
2018-01-23T08:58:02.863Z,5.90
2018-01-23T08:59:02.859Z,7.00
2018-01-23T09:00:02.855Z,6.40
2018-01-23T09:01:02.855Z,6.60
2018-01-23T09:02:02.845Z,6.80
2018-01-23T09:03:02.843Z,7.50
2018-01-23T09:04:02.836Z,7.10
2018-01-23T09:05:02.832Z,7.20
2018-01-23T09:06:02.826Z,6.20
2018-01-23T09:07:02.823Z,6.10
2018-01-23T09:08:02.819Z,6.00
2018-01-23T09:09:02.814Z,6.80
2018-01-23T09:10:02.809Z,5.70
2018-01-23T09:11:02.806Z,6.10
2018-01-23T09:12:02.801Z,6.20
2018-01-23T09:13:02.797Z,6.70
2018-01-23T09:14:02.791Z,5.20
2018-01-23T09:15:02.787Z,6.00
2018-01-23T09:16:02.782Z,6.90
2018-01-23T09:17:02.780Z,5.40
2018-01-23T09:18:02.774Z,6.30
2018-01-23T09:19:02.770Z,8.60
2018-01-23T09:20:02.766Z,6.90
2018-01-23T09:21:02.761Z,6.30
2018-01-23T09:22:02.756Z,8.60
2018-01-23T09:23:02.752Z,8.70
2018-01-23T09:24:02.748Z,6.30
2018-01-23T09:25:02.746Z,5.90
2018-01-23T09:26:02.743Z,4.30
2018-01-23T09:27:02.735Z,5.20
2018-01-23T09:28:02.730Z,5.10
2018-01-23T09:29:02.727Z,5.10
2018-01-23T09:30:02.742Z,5.30
2018-01-23T09:31:02.719Z,5.60
2018-01-23T09:32:02.716Z,5.30
2018-01-23T09:33:02.710Z,5.80
2018-01-23T09:34:02.705Z,5.50
2018-01-23T09:35:02.700Z,6.30
2018-01-23T09:36:02.697Z,6.10
2018-01-23T09:37:02.694Z,6.00
2018-01-23T09:38:02.689Z,6.30
2018-01-23T09:39:02.684Z,6.90
2018-01-23T09:40:02.680Z,6.00
2018-01-23T09:41:02.677Z,4.50
2018-01-23T09:42:02.671Z,6.90
2018-01-23T09:43:02.668Z,6.10
2018-01-23T09:44:02.663Z,6.40
2018-01-23T09:45:02.660Z,6.10
2018-01-23T09:46:02.654Z,6.30
2018-01-23T09:47:02.650Z,5.50
2018-01-23T09:48:02.647Z,5.60
2018-01-23T09:49:02.644Z,6.30
2018-01-23T09:50:02.641Z,5.40
2018-01-23T09:51:02.632Z,5.30
2018-01-23T09:52:02.630Z,6.00
2018-01-23T09:53:02.626Z,4.70
2018-01-23T09:54:02.620Z,6.50
2018-01-23T09:55:02.619Z,5.70
2018-01-23T09:56:02.612Z,5.50
2018-01-23T09:57:02.608Z,6.30
2018-01-23T09:58:02.605Z,5.50
2018-01-23T09:59:02.601Z,5.60
2018-01-23T10:00:02.597Z,5.20
2018-01-23T10:01:02.593Z,5.20
2018-01-23T10:02:02.587Z,5.10
2018-01-23T10:03:02.584Z,5.60
2018-01-23T10:04:02.580Z,3.90
2018-01-23T10:05:02.576Z,5.60
2018-01-23T10:06:02.571Z,4.80
2018-01-23T10:07:02.566Z,5.40
2018-01-23T10:08:02.563Z,5.10
2018-01-23T10:09:02.559Z,4.80
2018-01-23T10:10:02.555Z,4.80
2018-01-23T10:11:02.551Z,4.60
2018-01-23T10:12:02.546Z,5.50
2018-01-23T10:13:02.573Z,4.80
2018-01-23T10:14:02.538Z,5.10
2018-01-23T10:15:02.534Z,5.40
2018-01-23T10:16:02.530Z,4.80
2018-01-23T10:17:02.527Z,5.50
2018-01-23T10:18:02.523Z,4.80
2018-01-23T10:19:02.519Z,4.50
2018-01-23T10:20:02.516Z,4.80
2018-01-23T10:21:02.511Z,4.90
2018-01-23T10:22:02.506Z,4.80
2018-01-23T10:23:02.504Z,5.60
2018-01-23T10:24:02.502Z,5.30
2018-01-23T10:25:02.496Z,4.60
2018-01-23T10:26:02.492Z,4.70
2018-01-23T10:27:02.488Z,5.00
2018-01-23T10:28:02.485Z,5.20
2018-01-23T10:29:02.481Z,5.30
2018-01-23T10:30:02.478Z,4.70
2018-01-23T10:31:02.472Z,4.20
2018-01-23T10:32:02.473Z,4.70
2018-01-23T10:33:02.465Z,4.20
2018-01-23T10:34:02.459Z,3.70
2018-01-23T10:35:02.458Z,4.40
2018-01-23T10:36:02.454Z,4.00
2018-01-23T10:37:02.451Z,4.90
2018-01-23T10:38:02.445Z,4.30
2018-01-23T10:39:02.442Z,4.30
2018-01-23T10:40:02.439Z,4.00
2018-01-23T10:41:02.436Z,3.80
2018-01-23T10:42:02.430Z,4.90
2018-01-23T10:43:02.428Z,4.80
2018-01-23T10:44:02.423Z,4.40
2018-01-23T10:45:02.419Z,4.40
2018-01-23T10:46:02.416Z,4.30
2018-01-23T10:47:02.413Z,4.00
2018-01-23T10:48:02.409Z,4.60
2018-01-23T10:49:02.405Z,3.60
2018-01-23T10:50:02.400Z,3.90
2018-01-23T10:51:02.397Z,3.90
2018-01-23T10:52:02.393Z,3.80
2018-01-23T10:53:02.390Z,3.90
2018-01-23T10:54:02.385Z,3.80
2018-01-23T10:55:02.383Z,4.00
2018-01-23T10:56:02.378Z,4.50
2018-01-23T10:57:02.375Z,4.60
2018-01-23T10:58:02.372Z,4.30
2018-01-23T10:59:02.368Z,4.40
2018-01-23T11:00:02.364Z,4.20
2018-01-23T11:01:02.360Z,4.40
2018-01-23T11:02:02.354Z,3.50
2018-01-23T11:03:02.358Z,4.10
2018-01-23T11:04:02.350Z,3.70
2018-01-23T11:05:02.346Z,4.30
2018-01-23T11:06:02.341Z,3.60
2018-01-23T11:07:02.337Z,3.90
2018-01-23T11:08:02.338Z,3.50
2018-01-23T11:09:02.331Z,3.90
2018-01-23T11:10:02.327Z,3.80
2018-01-23T11:11:02.323Z,4.00
2018-01-23T11:12:02.319Z,3.60
2018-01-23T11:13:02.315Z,4.10
2018-01-23T11:14:02.311Z,4.50
2018-01-23T11:15:02.309Z,3.80
2018-01-23T11:16:02.305Z,4.10
2018-01-23T11:17:02.303Z,4.00
2018-01-23T11:18:02.298Z,3.80
2018-01-23T11:19:02.293Z,3.40
2018-01-23T11:20:02.340Z,4.30
2018-01-23T11:21:02.288Z,4.00
2018-01-23T11:22:02.281Z,4.20
2018-01-23T11:23:02.278Z,3.50
2018-01-23T11:24:02.275Z,3.50
2018-01-23T11:25:02.271Z,4.50
2018-01-23T11:26:02.271Z,4.10
2018-01-23T11:27:02.265Z,3.90
2018-01-23T11:28:02.261Z,3.40
2018-01-23T11:29:02.262Z,4.50
2018-01-23T11:30:02.253Z,3.30
2018-01-23T11:31:02.249Z,4.10
2018-01-23T11:32:02.246Z,3.40
2018-01-23T11:33:02.242Z,4.10
2018-01-23T11:34:02.237Z,4.30
2018-01-23T11:35:02.234Z,4.00
2018-01-23T11:36:02.231Z,3.40
2018-01-23T11:37:02.228Z,3.60
2018-01-23T11:38:02.224Z,3.80
2018-01-23T11:39:02.220Z,3.30
2018-01-23T11:40:02.217Z,4.00
2018-01-23T11:41:02.214Z,3.40
2018-01-23T11:42:02.209Z,4.00
2018-01-23T11:43:02.207Z,4.10
2018-01-23T11:44:02.202Z,3.40
2018-01-23T11:45:02.198Z,3.20
2018-01-23T11:46:02.193Z,3.10
2018-01-23T11:47:02.190Z,3.70
2018-01-23T11:48:02.187Z,3.50
2018-01-23T11:49:02.185Z,3.80
2018-01-23T11:50:02.180Z,4.00
2018-01-23T11:51:02.177Z,3.30
2018-01-23T11:52:02.172Z,3.70
2018-01-23T11:53:02.170Z,3.70
2018-01-23T11:54:02.168Z,3.90
2018-01-23T11:55:02.163Z,4.00
2018-01-23T11:56:02.162Z,4.60
2018-01-23T11:57:02.161Z,3.50
2018-01-23T11:58:02.152Z,3.10
2018-01-23T11:59:02.149Z,2.90
2018-01-23T12:00:02.145Z,3.20
2018-01-23T12:01:02.142Z,3.70
2018-01-23T12:02:02.137Z,3.20
2018-01-23T12:03:02.134Z,3.20
2018-01-23T12:04:02.132Z,3.80
2018-01-23T12:05:02.130Z,3.50
2018-01-23T12:06:02.125Z,3.70
2018-01-23T12:07:02.178Z,3.70
2018-01-23T12:08:02.126Z,3.10
2018-01-23T12:09:02.117Z,3.10
2018-01-23T12:10:02.112Z,3.40
2018-01-23T12:11:02.109Z,3.10
2018-01-23T12:12:02.106Z,2.20
2018-01-23T12:13:02.104Z,2.70
2018-01-23T12:14:02.101Z,2.70
2018-01-23T12:15:02.099Z,2.70
2018-01-23T12:16:02.095Z,3.00
2018-01-23T12:17:02.092Z,2.80
2018-01-23T12:18:02.089Z,3.80
2018-01-23T12:19:02.085Z,4.10
2018-01-23T12:20:02.084Z,3.00
2018-01-23T12:21:02.080Z,2.80
2018-01-23T12:22:02.076Z,3.20
2018-01-23T12:23:02.073Z,3.50
2018-01-23T12:24:02.075Z,4.50
2018-01-23T12:25:02.067Z,3.50
2018-01-23T12:26:02.064Z,3.50
2018-01-23T12:27:02.062Z,2.70
2018-01-23T12:28:02.061Z,3.00
2018-01-23T12:29:02.056Z,3.20
2018-01-23T12:30:02.053Z,2.70
2018-01-23T12:31:02.051Z,2.10
2018-01-23T12:32:02.049Z,2.90
2018-01-23T12:33:02.045Z,2.70
2018-01-23T12:34:02.041Z,3.30
2018-01-23T12:35:02.042Z,2.10
2018-01-23T12:36:02.037Z,2.20
2018-01-23T12:37:02.034Z,2.90
2018-01-23T12:38:02.029Z,2.60
2018-01-23T12:39:02.026Z,2.30
2018-01-23T12:40:02.025Z,2.10
2018-01-23T12:41:02.023Z,2.20
2018-01-23T12:42:02.018Z,2.00
2018-01-23T12:43:02.015Z,2.40
2018-01-23T12:44:02.013Z,2.00
2018-01-23T12:45:02.011Z,1.90
2018-01-23T12:46:02.007Z,1.80
2018-01-23T12:47:02.004Z,1.80
2018-01-23T12:48:02.002Z,1.80
2018-01-23T12:49:01.998Z,1.90
2018-01-23T12:50:01.995Z,2.70
2018-01-23T12:51:01.993Z,2.20
2018-01-23T12:52:01.989Z,2.40
2018-01-23T12:53:01.988Z,1.90
2018-01-23T12:54:01.984Z,2.10
2018-01-23T12:55:01.980Z,2.40
2018-01-23T12:56:01.977Z,1.80
2018-01-23T12:57:01.975Z,1.70
2018-01-23T12:58:01.971Z,1.90
2018-01-23T12:59:01.970Z,2.20
2018-01-23T13:00:01.966Z,2.10
2018-01-23T13:01:01.963Z,2.10
2018-01-23T13:02:01.960Z,2.00
2018-01-23T13:03:01.957Z,1.90
2018-01-23T13:04:01.954Z,2.00
2018-01-23T13:05:01.952Z,1.90
2018-01-23T13:06:01.947Z,1.90
2018-01-23T13:07:01.946Z,2.00
2018-01-23T13:08:01.943Z,2.20
2018-01-23T13:09:01.940Z,1.90
2018-01-23T13:10:01.935Z,2.30
2018-01-23T13:11:01.934Z,2.00
2018-01-23T13:12:01.932Z,1.80
2018-01-23T13:13:01.930Z,2.20
2018-01-23T13:14:01.924Z,2.00
2018-01-23T13:15:01.921Z,1.90
2018-01-23T13:16:01.920Z,1.80
2018-01-23T13:17:01.918Z,1.80
2018-01-23T13:18:01.912Z,2.00